Time;durP1;ratioP1;P1;durP2;ratioP2;P2;SDS_P1;SDS_P2;PMS_P1;PMS_P2;Temp;Humidity;BMP_temperature;BMP_pressure;BME280_temperature;BME280_humidity;BME280_pressure;Samples;Min_cycle;Max_cycle;Signal;HPM_P1;HPM_P2
2021/10/11 00:07:28;;;;;;;1.60;0.20;;;16.50;99.90;;;;;;20737531;23;20345;-68
2021/10/11 00:17:33;;;;;;;0.20;0.10;;;16.50;99.90;;;;;;20773566;28;20222;-69
2021/10/11 00:27:37;;;;;;;1.53;0.80;;;16.40;99.90;;;;;;20820317;28;20208;-69
2021/10/11 00:37:42;;;;;;;0.20;0.10;;;16.20;99.90;;;;;;20818769;28;20232;-67
2021/10/11 00:47:45;;;;;;;0.77;0.40;;;16.00;99.90;;;;;;20818440;28;20206;-67
2021/10/11 00:57:52;;;;;;;0.30;0.20;;;15.90;99.90;;;;;;20817428;28;20265;-66
2021/10/11 01:07:56;;;;;;;0.60;0.60;;;15.90;99.90;;;;;;20817271;28;20236;-67
2021/10/11 01:18:01;;;;;;;0.50;0.50;;;15.80;99.90;;;;;;20778019;28;20226;-67
2021/10/11 01:28:10;;;;;;;0.30;0.20;;;15.90;99.90;;;;;;20749888;28;20207;-67
2021/10/11 01:38:14;;;;;;;0.37;0.33;;;16.00;99.90;;;;;;20733454;28;20318;-66
2021/10/11 01:48:22;;;;;;;0.20;0.10;;;15.90;99.90;;;;;;20734141;28;20199;-67
2021/10/11 01:58:27;;;;;;;0.20;0.10;;;15.80;99.90;;;;;;20732773;28;20226;-67
2021/10/11 02:08:32;;;;;;;0.50;0.20;;;15.50;99.90;;;;;;20670315;23;20239;-67
2021/10/11 02:18:36;;;;;;;0.40;0.40;;;15.40;99.90;;;;;;20696233;28;20241;-66
2021/10/11 02:28:41;;;;;;;0.93;0.93;;;15.30;99.90;;;;;;20746775;28;20191;-65
2021/10/11 02:38:45;;;;;;;1.43;0.77;;;15.20;99.90;;;;;;20735179;28;20309;-66
2021/10/11 02:48:50;;;;;;;0.43;0.40;;;15.30;99.90;;;;;;20662640;28;20599;-66
2021/10/11 02:58:53;;;;;;;0.20;0.13;;;15.30;99.90;;;;;;20663794;28;20238;-66
2021/10/11 03:08:58;;;;;;;3.80;1.23;;;15.60;99.90;;;;;;20675206;23;20318;-72
2021/10/11 03:19:02;;;;;;;0.30;0.20;;;15.60;99.90;;;;;;20710050;28;20306;-73
2021/10/11 03:29:07;;;;;;;0.90;0.90;;;15.50;99.90;;;;;;20742360;28;20632;-73
2021/10/11 03:39:11;;;;;;;0.30;0.30;;;15.10;99.90;;;;;;20740207;28;20233;-72
2021/10/11 03:49:16;;;;;;;1.33;1.07;;;14.90;99.90;;;;;;20740859;28;20562;-72
2021/10/11 03:59:19;;;;;;;0.50;0.40;;;15.20;99.90;;;;;;20740059;28;20226;-73
2021/10/11 04:09:28;;;;;;;0.60;0.60;;;15.50;99.90;;;;;;20681222;28;20299;-72
2021/10/11 04:19:33;;;;;;;0.20;0.10;;;15.50;99.90;;;;;;20707954;28;20276;-73
2021/10/11 04:29:39;;;;;;;0.77;0.70;;;15.60;99.90;;;;;;20737622;28;20220;-72
2021/10/11 04:39:42;;;;;;;0.47;0.27;;;15.60;99.90;;;;;;20737688;28;20246;-72
2021/10/11 04:49:47;;;;;;;0.50;0.33;;;15.60;99.90;;;;;;20736240;28;20209;-74
2021/10/11 04:59:51;;;;;;;0.20;0.10;;;15.60;99.90;;;;;;20734779;28;20255;-75
2021/10/11 05:09:56;;;;;;;0.80;0.40;;;15.50;99.90;;;;;;20734667;28;20274;-73
2021/10/11 05:20:02;;;;;;;0.67;0.30;;;15.20;99.90;;;;;;20680171;28;20219;-73
2021/10/11 05:30:08;;;;;;;2.60;0.77;;;15.10;99.90;;;;;;20652702;28;20601;-74
2021/10/11 05:40:11;;;;;;;0.20;0.20;;;15.20;99.90;;;;;;20654013;28;20682;-73
2021/10/11 05:50:16;;;;;;;0.40;0.40;;;15.20;99.90;;;;;;20651618;28;20195;-73
2021/10/11 06:00:20;;;;;;;0.30;0.27;;;15.20;99.90;;;;;;20663215;28;20325;-72
2021/10/11 06:10:25;;;;;;;1.67;0.50;;;15.10;99.90;;;;;;20667722;28;20206;-73
2021/10/11 06:20:29;;;;;;;0.80;0.27;;;15.10;99.90;;;;;;20724085;28;20222;-73
2021/10/11 06:30:34;;;;;;;1.13;0.77;;;15.10;99.90;;;;;;20745199;28;20290;-70
2021/10/11 06:40:37;;;;;;;0.43;0.43;;;15.30;99.90;;;;;;20745848;28;20556;-71
2021/10/11 06:50:42;;;;;;;0.20;0.10;;;15.60;99.90;;;;;;20745393;28;20799;-70
2021/10/11 07:00:46;;;;;;;1.37;0.97;;;15.70;99.90;;;;;;20726425;28;20334;-70
2021/10/11 07:10:54;;;;;;;2.00;0.73;;;16.00;99.90;;;;;;20742776;28;20205;-70
2021/10/11 07:20:58;;;;;;;1.10;0.73;;;16.40;99.90;;;;;;20677373;28;20325;-73
2021/10/11 07:31:03;;;;;;;0.60;0.50;;;16.60;99.90;;;;;;20659627;28;20204;-71
2021/10/11 07:41:07;;;;;;;1.13;1.03;;;17.10;99.90;;;;;;20659327;28;20258;-72
2021/10/11 07:51:12;;;;;;;0.63;0.47;;;17.10;99.90;;;;;;20655085;28;20211;-70
2021/10/11 08:01:20;;;;;;;0.67;0.67;;;17.20;99.90;;;;;;20657094;28;20242;-71
2021/10/11 08:11:25;;;;;;;1.07;0.53;;;17.40;99.90;;;;;;20657383;28;20538;-71
2021/10/11 08:21:29;;;;;;;0.73;0.73;;;18.00;99.90;;;;;;20724037;28;20249;-71
2021/10/11 08:31:34;;;;;;;0.87;0.87;;;18.60;99.90;;;;;;20732894;28;20714;-73
2021/10/11 08:41:38;;;;;;;0.40;0.23;;;18.80;99.90;;;;;;20656546;28;20238;-73
2021/10/11 08:51:43;;;;;;;0.50;0.50;;;19.00;99.90;;;;;;20656292;28;20199;-73
2021/10/11 09:01:49;;;;;;;2.20;1.33;;;19.30;99.90;;;;;;20652720;28;20266;-73
2021/10/11 09:11:54;;;;;;;1.03;0.50;;;19.70;99.90;;;;;;20650947;28;20687;-73
2021/10/11 09:21:58;;;;;;;1.37;0.67;;;20.10;99.90;;;;;;20724678;28;20361;-70
2021/10/11 09:32:06;;;;;;;0.27;0.27;;;20.50;99.90;;;;;;20741635;28;20680;-73
2021/10/11 09:42:16;;;;;;;0.20;0.20;;;21.20;99.90;;;;;;20749842;28;20240;-74
2021/10/11 09:52:21;;;;;;;0.27;0.27;;;21.40;99.90;;;;;;20748877;28;20218;-74
2021/10/11 10:02:27;;;;;;;0.73;0.60;;;21.30;99.90;;;;;;20746692;28;20245;-72
2021/10/11 10:12:33;;;;;;;1.23;0.50;;;21.70;99.90;;;;;;20748752;28;20195;-73
2021/10/11 10:22:36;;;;;;;0.87;0.77;;;21.80;99.90;;;;;;20671403;28;20310;-74
2021/10/11 10:32:57;;;;;;;3.50;1.20;;;22.10;99.90;;;;;;20663947;28;20195;-72
2021/10/11 10:43:07;;;;;;;1.23;1.17;;;22.60;99.90;;;;;;20665119;28;20258;-74
2021/10/11 10:53:13;;;;;;;2.17;1.02;;;22.80;99.90;;;;;;20661633;28;20203;-73
2021/10/11 11:03:17;;;;;;;0.40;0.40;;;23.20;99.90;;;;;;20660367;28;20263;-73
2021/10/11 11:13:24;;;;;;;0.85;0.68;;;23.60;99.90;;;;;;20665782;28;20211;-73
2021/10/11 11:23:31;;;;;;;2.88;1.17;;;24.10;99.90;;;;;;20754073;28;20773;-73
2021/10/11 11:33:36;;;;;;;1.13;0.70;;;24.60;99.90;;;;;;20674464;28;20254;-72
2021/10/11 11:43:42;;;;;;;1.05;0.88;;;24.80;99.90;;;;;;20657595;28;20231;-71
2021/10/11 11:53:47;;;;;;;1.02;0.68;;;25.70;99.90;;;;;;20655039;28;20728;-71
2021/10/11 12:03:54;;;;;;;0.52;0.28;;;25.80;99.90;;;;;;20654195;28;20322;-72
2021/10/11 12:14:01;;;;;;;1.02;0.70;;;26.70;99.90;;;;;;20661906;28;20668;-73
2021/10/11 12:24:15;;;;;;;1.42;0.65;;;26.70;99.90;;;;;;20735935;28;20242;-74
2021/10/11 12:34:20;;;;;;;1.05;0.95;;;26.40;99.90;;;;;;20666413;28;20207;-73
2021/10/11 12:44:34;;;;;;;0.70;0.65;;;26.90;99.90;;;;;;20651762;28;20230;-73
2021/10/11 12:54:40;;;;;;;1.65;1.38;;;27.40;99.90;;;;;;20651299;28;20716;-73
2021/10/11 13:04:43;;;;;;;0.80;0.70;;;27.40;99.90;;;;;;20649740;28;20270;-75
2021/10/11 13:14:48;;;;;;;1.77;1.67;;;27.90;99.90;;;;;;20661691;28;20393;-72
2021/10/11 13:24:52;;;;;;;2.10;1.52;;;28.10;99.90;;;;;;20730924;28;20646;-74
2021/10/11 16:00:15;;;;;;;2.15;1.00;;;23.30;99.90;;;;;;20656805;28;20687;-72
2021/10/11 16:10:20;;;;;;;1.25;0.80;;;22.70;99.90;;;;;;20656855;28;20205;-73
2021/10/11 16:20:25;;;;;;;0.40;0.37;;;22.30;99.90;;;;;;20713508;28;20576;-72
2021/10/11 16:30:28;;;;;;;0.77;0.77;;;22.10;99.90;;;;;;20736513;28;20231;-71
2021/10/11 16:40:33;;;;;;;0.88;0.68;;;22.10;99.90;;;;;;20656184;28;20231;-73
2021/10/11 16:50:37;;;;;;;1.43;0.83;;;21.90;99.90;;;;;;20653328;28;20535;-71
2021/10/11 17:00:43;;;;;;;0.70;0.70;;;21.70;99.90;;;;;;20652799;28;20231;-73
2021/10/11 17:10:48;;;;;;;5.80;1.30;;;21.40;99.90;;;;;;20652340;28;20217;-73
2021/10/11 17:20:53;;;;;;;1.10;0.70;;;21.30;99.90;;;;;;20715086;28;20680;-72
2021/10/11 17:30:57;;;;;;;0.77;0.53;;;21.10;99.90;;;;;;20731456;28;20206;-72
2021/10/11 17:41:03;;;;;;;1.57;0.80;;;21.10;99.90;;;;;;20652890;28;20641;-74
2021/10/11 17:51:06;;;;;;;3.17;1.47;;;20.80;99.90;;;;;;20655392;28;20222;-73
2021/10/11 18:01:12;;;;;;;2.10;1.20;;;20.80;99.90;;;;;;20666536;28;20568;-73
2021/10/11 18:11:16;;;;;;;0.43;0.43;;;20.00;99.90;;;;;;20666428;28;20196;-75
2021/10/11 18:21:22;;;;;;;0.40;0.40;;;19.50;99.90;;;;;;20675529;28;20707;-74
2021/10/11 18:31:26;;;;;;;0.97;0.70;;;18.80;99.90;;;;;;20664065;28;20227;-74
2021/10/11 18:41:31;;;;;;;5.43;1.43;;;18.50;99.90;;;;;;20662011;28;20250;-73
2021/10/11 18:51:37;;;;;;;3.20;1.23;;;18.50;99.90;;;;;;20659417;28;20559;-72
2021/10/11 19:01:44;;;;;;;7.53;0.80;;;18.50;99.90;;;;;;20658961;28;20720;-73
2021/10/11 19:11:48;;;;;;;0.93;0.30;;;18.30;99.90;;;;;;20658419;28;20223;-73
2021/10/11 19:21:53;;;;;;;3.27;0.33;;;18.20;99.90;;;;;;20726200;28;20306;-70
2021/10/11 19:31:58;;;;;;;0.93;0.90;;;18.00;99.90;;;;;;20728948;28;20211;-73
2021/10/11 19:42:03;;;;;;;1.43;0.83;;;17.90;99.90;;;;;;20656281;28;20233;-71
2021/10/11 19:52:07;;;;;;;0.83;0.47;;;17.80;99.90;;;;;;20655286;28;20223;-72
2021/10/11 20:02:16;;;;;;;0.57;0.57;;;17.60;99.90;;;;;;20615597;28;20565;-73
2021/10/11 20:12:23;;;;;;;0.50;0.50;;;17.50;99.90;;;;;;20603707;28;20620;-72
2021/10/11 20:22:53;;;;;;;0.87;0.87;;;17.30;99.90;;;;;;20625699;28;20223;-73
2021/10/11 20:33:07;;;;;;;1.13;0.63;;;17.20;99.90;;;;;;20637435;28;20287;-73
2021/10/11 20:54:03;;;;;;;1.30;0.60;;;17.00;99.90;;;;;;20650405;28;20246;-71
2021/10/11 21:04:32;;;;;;;1.53;0.73;;;16.90;99.90;;;;;;20649519;28;20664;-72
2021/10/11 21:14:56;;;;;;;1.53;1.43;;;16.80;99.90;;;;;;20662330;28;20221;-73
2021/10/11 21:25:23;;;;;;;0.43;0.43;;;16.90;99.90;;;;;;20707826;28;20223;-72
2021/10/11 21:35:28;;;;;;;0.50;0.50;;;16.80;99.90;;;;;;20668658;28;20722;-72
2021/10/11 21:45:45;;;;;;;1.20;1.00;;;16.80;99.90;;;;;;20668058;28;20561;-71
2021/10/11 21:56:10;;;;;;;;;;;;;;;;;;;;;
2021/10/11 22:06:21;;;;;;;0.73;0.60;;;16.70;99.90;;;;;;20669119;28;20243;-73
2021/10/11 22:16:26;;;;;;;3.43;1.37;;;16.90;99.90;;;;;;20689206;28;20203;-71
2021/10/11 22:26:33;;;;;;;0.50;0.40;;;16.80;99.90;;;;;;20673782;28;20228;-72
2021/10/11 22:36:37;;;;;;;0.97;0.87;;;16.60;99.90;;;;;;20654319;28;20279;-73
2021/10/11 22:46:44;;;;;;;1.40;0.63;;;16.60;99.90;;;;;;20659611;28;20336;-72
2021/10/11 22:56:48;;;;;;;1.00;1.00;;;16.70;99.90;;;;;;20659848;28;20203;-71
2021/10/11 23:06:53;;;;;;;1.80;1.70;;;16.80;99.90;;;;;;20658555;28;20743;-72
2021/10/11 23:16:56;;;;;;;1.47;1.33;;;16.70;99.90;;;;;;20686341;28;20672;-72
2021/10/11 23:27:02;;;;;;;1.13;0.93;;;16.60;99.90;;;;;;20629609;28;20239;-71
2021/10/11 23:37:05;;;;;;;0.80;0.50;;;16.70;99.90;;;;;;20646494;28;20278;-73
2021/10/11 23:47:10;;;;;;;3.07;1.63;;;16.40;99.90;;;;;;20657681;28;20234;-74
2021/10/11 23:57:14;;;;;;;1.00;1.00;;;16.50;99.90;;;;;;20658421;28;20200;-72
